Time;durP1;ratioP1;P1;durP2;ratioP2;P2;SDS_P1;SDS_P2;PMS_P1;PMS_P2;Temp;Humidity;BMP_temperature;BMP_pressure;BME280_temperature;BME280_humidity;BME280_pressure;Samples;Min_cycle;Max_cycle;Signal;HPM_P1;HPM_P2
2022/09/05 00:01:24;;;;;;;3.80;2.45;;;;;;;19.83;nan;-24368.72;5044487;28;20302;-57
2022/09/05 00:04:04;;;;;;;3.67;2.50;;;;;;;19.77;nan;-24367.06;5039694;28;20186;-57
2022/09/05 00:06:36;;;;;;;3.85;3.03;;;;;;;19.82;nan;-24368.59;5044869;28;20187;-58
2022/09/05 00:09:17;;;;;;;6.35;3.00;;;;;;;19.66;nan;-24364.00;5039070;28;20692;-57
2022/09/05 00:11:57;;;;;;;5.80;3.30;;;;;;;19.81;nan;-24368.19;5033990;28;20628;-57
2022/09/05 00:14:26;;;;;;;4.10;2.70;;;;;;;19.62;nan;-24363.03;5037087;28;20181;-57
2022/09/05 00:17:29;;;;;;;5.72;2.90;;;;;;;19.75;nan;-24366.50;5046489;28;20638;-57
2022/09/05 00:20:13;;;;;;;5.30;3.05;;;;;;;19.74;nan;-24366.38;5035513;28;20219;-58
2022/09/05 00:22:53;;;;;;;3.20;2.55;;;;;;;19.74;nan;-24366.22;5041817;28;20586;-58
2022/09/05 00:25:34;;;;;;;5.07;3.03;;;;;;;19.74;nan;-24366.22;5020737;28;20209;-58
2022/09/05 00:28:17;;;;;;;4.75;2.70;;;;;;;19.73;nan;-24365.94;5047242;28;20209;-57
2022/09/05 00:30:59;;;;;;;8.68;2.40;;;;;;;19.35;nan;-24355.53;5042416;28;20179;-58
2022/09/05 00:33:40;;;;;;;4.53;2.88;;;;;;;19.68;nan;-24364.56;5039819;28;20573;-58
2022/09/05 00:36:20;;;;;;;4.20;3.10;;;;;;;19.61;nan;-24362.63;5042156;28;20267;-58
2022/09/05 00:39:16;;;;;;;5.00;2.95;;;;;;;19.55;nan;-24360.94;5047760;28;20186;-58
2022/09/05 00:41:45;;;;;;;5.43;3.08;;;;;;;19.34;nan;-24355.38;5034606;28;20245;-58
2022/09/05 00:44:13;;;;;;;4.75;3.00;;;;;;;19.24;nan;-24352.59;5045559;28;20667;-57
2022/09/05 00:46:43;;;;;;;4.53;3.20;;;;;;;19.54;nan;-24360.66;5033071;28;20611;-58
2022/09/05 00:49:18;;;;;;;3.88;3.03;;;;;;;19.15;nan;-24349.94;5042787;28;20684;-58
2022/09/05 00:51:57;;;;;;;3.60;2.67;;;;;;;19.47;nan;-24358.84;5033165;28;20235;-58
2022/09/05 00:54:22;;;;;;;3.67;2.50;;;;;;;19.59;nan;-24362.06;5042733;28;20183;-58
2022/09/05 00:57:12;;;;;;;3.75;2.47;;;;;;;19.38;nan;-24356.50;5033450;28;20526;-58
2022/09/05 00:59:56;;;;;;;3.47;2.53;;;;;;;19.41;nan;-24357.34;5037716;28;20178;-57
2022/09/05 01:02:30;;;;;;;4.57;2.80;;;;;;;19.39;nan;-24356.63;5037987;28;20213;-58
2022/09/05 01:05:09;;;;;;;4.15;2.58;;;;;;;19.43;nan;-24357.75;5044416;28;20170;-57
2022/09/05 01:08:18;;;;;;;4.50;3.00;;;;;;;19.35;nan;-24355.66;5039710;28;20198;-57
2022/09/05 01:10:56;;;;;;;4.82;2.55;;;;;;;19.38;nan;-24356.50;5033049;28;20175;-57
2022/09/05 01:13:59;;;;;;;3.65;2.35;;;;;;;19.32;nan;-24354.81;5033332;28;20265;-58
2022/09/05 01:17:01;;;;;;;4.47;2.65;;;;;;;19.39;nan;-24356.63;5034608;28;20201;-57
2022/09/05 01:20:06;;;;;;;5.20;2.80;;;;;;;19.44;nan;-24358.03;5041791;28;20614;-58
2022/09/05 01:22:43;;;;;;;3.90;2.83;;;;;;;19.36;nan;-24355.94;5035859;28;20206;-58
2022/09/05 01:25:47;;;;;;;3.63;2.47;;;;;;;19.33;nan;-24355.09;5042415;28;20190;-57
2022/09/05 01:28:12;;;;;;;3.45;2.50;;;;;;;19.43;nan;-24357.75;5017359;28;20205;-58
2022/09/05 01:30:55;;;;;;;5.35;2.78;;;;;;;19.44;nan;-24358.03;5032501;28;20191;-57
2022/09/05 01:34:04;;;;;;;4.05;2.55;;;;;;;19.39;nan;-24356.78;5040892;28;20271;-58
2022/09/05 01:36:30;;;;;;;4.65;2.95;;;;;;;19.31;nan;-24354.53;5031249;28;20218;-59
2022/09/05 01:39:22;;;;;;;6.25;3.55;;;;;;;19.37;nan;-24356.06;5046222;28;20182;-58
2022/09/05 01:42:03;;;;;;;4.88;2.92;;;;;;;19.38;nan;-24356.50;5038596;28;20210;-58
2022/09/05 01:45:02;;;;;;;4.13;2.25;;;;;;;19.47;nan;-24358.84;5046427;28;20194;-58
2022/09/05 01:47:44;;;;;;;4.25;2.90;;;;;;;19.50;nan;-24359.56;5026390;28;20295;-58
2022/09/05 01:50:26;;;;;;;3.65;2.67;;;;;;;19.27;nan;-24353.44;5038123;28;20417;-58
2022/09/05 01:53:24;;;;;;;3.97;2.60;;;;;;;19.37;nan;-24356.06;5038603;28;20187;-58
2022/09/05 01:55:59;;;;;;;6.78;2.88;;;;;;;19.29;nan;-24353.84;5033105;28;20273;-58
2022/09/05 01:58:42;;;;;;;3.00;2.50;;;;;;;19.52;nan;-24360.25;5041700;28;20180;-58
2022/09/05 02:01:26;;;;;;;3.00;2.33;;;;;;;19.60;nan;-24362.34;5041033;28;20206;-58
2022/09/05 02:04:18;;;;;;;3.80;2.33;;;;;;;19.15;nan;-24349.94;5042777;28;20193;-58
2022/09/05 02:06:44;;;;;;;4.25;3.15;;;;;;;19.50;nan;-24359.69;5035720;28;20772;-58
2022/09/05 02:09:39;;;;;;;4.25;2.63;;;;;;;19.55;nan;-24360.94;5045465;28;20277;-58
2022/09/05 02:12:14;;;;;;;4.65;2.75;;;;;;;19.47;nan;-24358.72;5047737;28;20194;-57
2022/09/05 02:14:44;;;;;;;4.85;2.58;;;;;;;19.50;nan;-24359.56;5042769;28;20178;-58
2022/09/05 02:17:22;;;;;;;3.70;2.50;;;;;;;19.07;nan;-24347.88;5044656;28;20508;-58
2022/09/05 02:20:07;;;;;;;4.20;2.92;;;;;;;19.55;nan;-24361.09;5043805;28;20231;-58
2022/09/05 02:22:49;;;;;;;5.70;2.90;;;;;;;19.27;nan;-24353.28;5049347;28;20203;-58
2022/09/05 02:25:26;;;;;;;5.18;3.00;;;;;;;19.03;nan;-24346.75;5026453;28;20175;-58
2022/09/05 02:28:13;;;;;;;4.53;3.03;;;;;;;19.38;nan;-24356.34;5034257;28;20603;-58
2022/09/05 02:30:48;;;;;;;4.57;2.75;;;;;;;19.27;nan;-24353.28;5034683;28;20179;-58
2022/09/05 02:33:23;;;;;;;6.70;2.90;;;;;;;19.38;nan;-24356.34;5044458;28;20576;-58
2022/09/05 02:36:13;;;;;;;4.90;3.15;;;;;;;19.37;nan;-24356.06;5039416;28;20179;-58
2022/09/05 02:38:51;;;;;;;6.03;3.20;;;;;;;19.02;nan;-24346.34;5048104;28;20680;-58
2022/09/05 02:41:39;;;;;;;6.15;3.47;;;;;;;19.33;nan;-24354.97;5034467;28;20220;-57
2022/09/05 02:44:26;;;;;;;5.05;3.42;;;;;;;19.42;nan;-24357.47;5040499;28;20179;-57
2022/09/05 02:47:00;;;;;;;4.57;3.40;;;;;;;19.23;nan;-24352.31;5041626;28;20198;-57
2022/09/05 02:49:48;;;;;;;4.45;3.22;;;;;;;19.31;nan;-24354.41;5043224;28;20312;-58
2022/09/05 02:52:17;;;;;;;4.30;2.92;;;;;;;19.41;nan;-24357.34;5044636;28;20205;-58
2022/09/05 02:54:47;;;;;;;4.70;3.22;;;;;;;19.12;nan;-24349.25;5038566;28;20253;-58
2022/09/05 02:57:19;;;;;;;4.15;3.53;;;;;;;19.35;nan;-24355.53;5034245;28;20171;-57
2022/09/05 02:59:52;;;;;;;7.68;4.00;;;;;;;19.06;nan;-24347.44;5041164;28;20195;-58
2022/09/05 03:02:36;;;;;;;6.90;3.45;;;;;;;19.42;nan;-24357.47;5034209;28;20214;-58
2022/09/05 03:05:15;;;;;;;6.50;3.22;;;;;;;19.45;nan;-24358.31;5043085;28;20191;-58
2022/09/05 03:07:40;;;;;;;6.00;3.45;;;;;;;19.48;nan;-24359.00;5044394;28;20187;-58
2022/09/05 03:10:20;;;;;;;4.60;3.20;;;;;;;19.47;nan;-24358.72;5045230;28;20645;-58
2022/09/05 03:13:22;;;;;;;10.75;3.88;;;;;;;19.29;nan;-24354.00;5034172;28;20209;-58
2022/09/05 03:15:56;;;;;;;4.63;3.17;;;;;;;19.49;nan;-24359.28;5033517;28;20171;-58
2022/09/05 03:19:07;;;;;;;4.90;2.90;;;;;;;19.48;nan;-24359.00;5041212;28;20611;-58
2022/09/05 03:22:09;;;;;;;5.20;3.25;;;;;;;19.48;nan;-24359.13;5036638;28;20736;-58
2022/09/05 03:24:51;;;;;;;4.70;3.10;;;;;;;19.22;nan;-24352.03;5049456;28;20178;-58
2022/09/05 03:27:44;;;;;;;5.85;3.50;;;;;;;19.49;nan;-24359.28;5039901;28;20194;-57
2022/09/05 03:30:26;;;;;;;9.02;3.10;;;;;;;19.47;nan;-24358.72;5044205;28;20194;-58
2022/09/05 03:33:13;;;;;;;5.93;3.72;;;;;;;19.46;nan;-24358.59;5036686;28;20195;-58
2022/09/05 03:36:29;;;;;;;4.93;3.53;;;;;;;18.95;nan;-24344.66;5014044;28;20175;-58
2022/09/05 03:39:06;;;;;;;6.97;3.45;;;;;;;19.25;nan;-24352.88;5027684;28;20635;-58
2022/09/05 03:41:48;;;;;;;5.35;2.92;;;;;;;19.43;nan;-24357.75;5033859;28;20187;-58
2022/09/05 03:44:39;;;;;;;7.03;3.45;;;;;;;19.43;nan;-24357.75;5034369;28;20646;-57
2022/09/05 03:47:34;;;;;;;6.95;4.20;;;;;;;18.93;nan;-24344.13;5042174;28;20334;-58
2022/09/05 03:50:35;;;;;;;7.65;3.95;;;;;;;19.32;nan;-24354.69;5039901;28;20175;-58
2022/09/05 03:53:21;;;;;;;5.03;3.55;;;;;;;19.36;nan;-24355.81;5014435;28;20247;-57
2022/09/05 03:56:00;;;;;;;4.68;3.30;;;;;;;19.59;nan;-24362.19;5038719;28;20253;-58
2022/09/05 03:58:58;;;;;;;6.22;3.72;;;;;;;19.18;nan;-24350.94;5043825;28;20183;-59
2022/09/05 04:02:01;;;;;;;5.97;3.75;;;;;;;19.40;nan;-24357.06;5035168;28;20644;-58
2022/09/05 04:04:42;;;;;;;5.78;3.38;;;;;;;19.44;nan;-24357.88;5024390;28;20194;-57
2022/09/05 04:07:26;;;;;;;4.80;3.33;;;;;;;19.02;nan;-24346.47;5032389;28;20199;-59
2022/09/05 04:09:59;;;;;;;5.78;3.78;;;;;;;19.52;nan;-24360.25;5032698;28;20171;-59
2022/09/05 04:12:57;;;;;;;4.97;3.42;;;;;;;19.58;nan;-24361.78;5045570;28;20175;-59
2022/09/05 04:15:31;;;;;;;5.75;3.72;;;;;;;19.66;nan;-24364.00;5034423;28;20206;-58
2022/09/05 04:18:04;;;;;;;5.38;3.13;;;;;;;19.63;nan;-24363.31;5047120;28;20178;-58
2022/09/05 04:20:50;;;;;;;5.45;3.35;;;;;;;19.70;nan;-24365.25;5044762;28;20238;-59
2022/09/05 04:23:45;;;;;;;6.95;3.67;;;;;;;19.52;nan;-24360.13;5020138;28;20209;-58
2022/09/05 04:26:24;;;;;;;6.40;3.92;;;;;;;20.08;nan;-24375.69;5046527;28;20606;-58
2022/09/05 04:29:01;;;;;;;5.18;3.63;;;;;;;20.12;nan;-24376.78;5042753;28;20179;-59
2022/09/05 04:31:43;;;;;;;4.50;3.22;;;;;;;20.20;nan;-24378.88;5040679;28;20209;-60
2022/09/05 04:34:14;;;;;;;6.63;3.70;;;;;;;20.22;nan;-24379.44;5042735;28;20214;-59
2022/09/05 04:36:42;;;;;;;5.78;3.33;;;;;;;20.18;nan;-24378.31;5032053;28;20636;-59
2022/09/05 04:39:16;;;;;;;5.78;3.53;;;;;;;20.56;nan;-24388.75;5032220;28;20180;-59
2022/09/05 04:41:48;;;;;;;5.85;3.28;;;;;;;20.31;nan;-24381.78;5032294;28;20207;-60
2022/09/05 04:44:18;;;;;;;4.30;3.10;;;;;;;20.60;nan;-24389.84;5032499;28;20176;-57
2022/09/05 04:46:53;;;;;;;4.00;2.65;;;;;;;20.75;nan;-24394.00;5032445;28;20171;-59
2022/09/05 04:49:22;;;;;;;3.72;2.85;;;;;;;20.44;nan;-24385.41;5032109;28;20589;-59
2022/09/05 04:52:00;;;;;;;4.72;2.60;;;;;;;20.39;nan;-24384.03;5036157;28;20215;-59
2022/09/05 04:54:47;;;;;;;5.00;3.05;;;;;;;20.38;nan;-24383.88;5037855;28;20222;-58
2022/09/05 04:57:45;;;;;;;4.95;3.00;;;;;;;20.20;nan;-24379.00;5031514;28;20283;-58
2022/09/05 05:00:20;;;;;;;3.90;2.58;;;;;;;20.05;nan;-24374.72;5028939;28;20194;-58
2022/09/05 05:02:51;;;;;;;3.47;2.50;;;;;;;19.66;nan;-24364.16;5035570;28;20210;-58
2022/09/05 05:05:20;;;;;;;4.22;2.92;;;;;;;20.01;nan;-24373.72;5035978;28;21204;-58
2022/09/05 05:07:49;;;;;;;5.18;3.50;;;;;;;20.05;nan;-24374.84;5035261;28;20662;-58
2022/09/05 05:10:26;;;;;;;5.57;3.40;;;;;;;19.85;nan;-24369.28;5034358;28;20232;-58
2022/09/05 05:12:55;;;;;;;3.58;2.70;;;;;;;19.66;nan;-24364.00;5035076;28;20275;-58
2022/09/05 05:15:24;;;;;;;4.63;2.72;;;;;;;20.02;nan;-24373.88;5033805;28;20566;-59
2022/09/05 05:18:03;;;;;;;3.75;2.70;;;;;;;19.75;nan;-24366.50;5035109;28;20172;-59
2022/09/05 05:20:36;;;;;;;4.07;2.67;;;;;;;19.91;nan;-24370.97;5036797;28;20222;-58
2022/09/05 05:23:08;;;;;;;3.00;2.65;;;;;;;19.93;nan;-24371.50;5034630;28;20676;-61
2022/09/05 05:25:55;;;;;;;3.80;2.53;;;;;;;20.33;nan;-24382.34;5035391;28;20174;-59
2022/09/05 05:28:28;;;;;;;5.47;2.63;;;;;;;20.31;nan;-24381.78;5034995;28;20203;-59
2022/09/05 05:31:06;;;;;;;4.22;2.70;;;;;;;20.45;nan;-24385.69;5034860;28;20262;-60
2022/09/05 05:33:36;;;;;;;5.10;3.20;;;;;;;20.50;nan;-24387.06;5035491;28;20227;-59
2022/09/05 05:36:08;;;;;;;3.38;2.65;;;;;;;20.68;nan;-24392.06;5036789;28;20219;-59
2022/09/05 05:38:36;;;;;;;3.72;2.53;;;;;;;20.69;nan;-24392.47;5035440;28;20182;-59
2022/09/05 05:41:35;;;;;;;4.85;3.00;;;;;;;20.75;nan;-24394.00;5035983;28;20210;-59
2022/09/05 05:44:13;;;;;;;3.90;2.28;;;;;;;20.63;nan;-24390.81;5036783;28;20183;-59
2022/09/05 05:46:43;;;;;;;6.03;3.10;;;;;;;20.78;nan;-24394.84;5036548;28;20221;-59
2022/09/05 05:49:43;;;;;;;4.25;2.75;;;;;;;20.93;nan;-24399.00;5033922;28;20198;-59
2022/09/05 05:52:36;;;;;;;6.53;3.05;;;;;;;21.15;nan;-24405.09;5032757;28;22560;-59
2022/09/05 05:55:24;;;;;;;4.00;2.60;;;;;;;20.99;nan;-24400.53;5034814;28;20190;-59
2022/09/05 05:58:13;;;;;;;4.60;2.80;;;;;;;21.55;nan;-24416.06;5040404;28;20628;-59
2022/09/05 06:00:54;;;;;;;3.53;2.42;;;;;;;21.72;nan;-24420.50;5030679;28;20211;-59
2022/09/05 06:03:22;;;;;;;4.47;2.42;;;;;;;21.85;nan;-24424.22;5031076;28;20229;-59
2022/09/05 06:06:20;;;;;;;3.95;2.65;;;;;;;22.01;nan;-24428.66;5030840;28;20278;-60
2022/09/05 06:09:07;;;;;;;5.68;2.72;;;;;;;22.29;nan;-24436.28;5030772;28;20220;-58
2022/09/05 06:11:58;;;;;;;3.90;2.40;;;;;;;22.48;nan;-24441.53;5030831;28;20168;-59
2022/09/05 06:15:02;;;;;;;3.53;2.40;;;;;;;22.82;nan;-24450.81;5031080;28;20199;-60
2022/09/05 06:18:06;;;;;;;3.95;2.50;;;;;;;23.04;nan;-24456.59;5030666;28;20206;-60
2022/09/05 06:20:47;;;;;;;4.90;2.95;;;;;;;23.08;nan;-24457.72;5030598;28;20706;-58
2022/09/05 06:23:34;;;;;;;4.38;2.60;;;;;;;23.10;nan;-24458.25;5029925;28;20191;-59
2022/09/05 06:26:21;;;;;;;3.50;2.30;;;;;;;23.43;nan;-24467.38;5030912;28;20191;-61
2022/09/05 06:29:25;;;;;;;3.58;2.50;;;;;;;23.52;nan;-24469.88;5030803;28;20178;-58
2022/09/05 06:32:28;;;;;;;6.00;3.38;;;;;;;23.61;nan;-24472.34;5029170;28;20325;-58
2022/09/05 06:35:00;;;;;;;6.00;2.78;;;;;;;23.80;nan;-24477.31;5030221;28;20186;-58
2022/09/05 06:38:03;;;;;;;3.38;2.60;;;;;;;23.51;nan;-24469.59;5030455;28;20251;-58
2022/09/05 06:41:03;;;;;;;3.15;2.40;;;;;;;23.38;nan;-24466.00;5031502;28;20167;-58
2022/09/05 06:43:37;;;;;;;4.93;2.95;;;;;;;23.34;nan;-24464.91;5033997;28;20202;-58
2022/09/05 06:46:09;;;;;;;3.85;2.40;;;;;;;23.48;nan;-24468.78;5037228;28;20236;-58
2022/09/05 06:48:46;;;;;;;4.25;2.75;;;;;;;23.48;nan;-24468.78;5042907;28;20211;-58
2022/09/05 06:51:51;;;;;;;5.28;3.13;;;;;;;23.67;nan;-24474.00;5038452;28;20634;-58
2022/09/05 06:54:28;;;;;;;3.65;2.60;;;;;;;23.82;nan;-24477.88;5037456;28;20188;-58
2022/09/05 06:56:59;;;;;;;3.45;2.50;;;;;;;24.04;nan;-24484.09;5037866;28;20269;-59
2022/09/05 06:59:43;;;;;;;3.53;2.50;;;;;;;24.07;nan;-24484.91;5037886;28;20190;-59
2022/09/05 07:02:16;;;;;;;4.18;3.00;;;;;;;23.99;nan;-24482.72;5036691;28;20245;-59
2022/09/05 07:05:02;;;;;;;4.93;3.00;;;;;;;23.95;nan;-24481.47;5037110;28;20178;-59
2022/09/05 07:08:25;;;;;;;3.88;2.80;;;;;;;24.25;nan;-24489.75;5035574;28;20183;-59
2022/09/05 07:11:02;;;;;;;7.03;3.58;;;;;;;24.21;nan;-24488.63;4995149;28;20324;-58
2022/09/05 07:13:46;;;;;;;4.20;2.63;;;;;;;24.13;nan;-24486.56;5038008;28;20217;-58
2022/09/05 07:16:17;;;;;;;5.63;2.78;;;;;;;24.21;nan;-24488.63;5034249;28;20194;-58
2022/09/05 07:18:55;;;;;;;2.80;2.42;;;;;;;24.08;nan;-24485.19;5040199;28;20179;-58
2022/09/05 07:21:51;;;;;;;4.65;2.72;;;;;;;24.51;nan;-24496.91;5033065;28;20687;-58
2022/09/05 07:24:21;;;;;;;5.45;2.90;;;;;;;24.22;nan;-24488.91;5031784;28;20225;-57
2022/09/05 07:26:48;;;;;;;4.35;2.90;;;;;;;24.39;nan;-24493.47;5031844;28;20264;-58
2022/09/05 07:29:28;;;;;;;5.40;2.90;;;;;;;24.61;nan;-24499.53;5033337;28;20677;-58
2022/09/05 07:31:58;;;;;;;5.07;2.90;;;;;;;24.44;nan;-24494.84;5033688;28;20203;-58
2022/09/05 07:34:30;;;;;;;5.00;3.15;;;;;;;25.24;nan;-24516.75;5033783;28;20294;-58
2022/09/05 07:37:23;;;;;;;4.82;3.55;;;;;;;25.64;nan;-24527.47;5034151;28;20171;-58
2022/09/05 07:39:56;;;;;;;4.07;2.85;;;;;;;25.75;nan;-24530.66;5033521;28;20740;-58
2022/09/05 07:42:35;;;;;;;3.88;2.72;;;;;;;25.55;nan;-24525.13;5033349;28;20281;-58
2022/09/05 07:45:10;;;;;;;4.82;3.08;;;;;;;25.47;nan;-24522.94;5033990;28;20175;-58
2022/09/05 07:47:43;;;;;;;4.25;2.83;;;;;;;25.29;nan;-24517.97;5033409;28;20197;-57
2022/09/05 07:50:11;;;;;;;6.78;3.58;;;;;;;24.80;nan;-24504.75;5033763;28;20164;-58
2022/09/05 07:52:43;;;;;;;4.88;3.05;;;;;;;24.47;nan;-24495.81;5032616;28;20184;-59
2022/09/05 07:55:22;;;;;;;3.80;2.60;;;;;;;24.91;nan;-24507.78;5033050;28;20262;-57
2022/09/05 07:57:48;;;;;;;3.58;2.80;;;;;;;25.06;nan;-24511.78;5033346;28;20179;-57
2022/09/05 08:00:23;;;;;;;6.50;3.00;;;;;;;25.03;nan;-24510.97;5033305;28;20175;-57
2022/09/05 08:02:49;;;;;;;4.63;2.97;;;;;;;25.64;nan;-24527.63;5032757;28;20260;-57
2022/09/05 08:05:21;;;;;;;4.80;2.70;;;;;;;26.16;nan;-24541.63;5032746;28;20176;-58
2022/09/05 08:08:00;;;;;;;4.30;3.10;;;;;;;26.03;nan;-24538.06;4912495;28;20202;-59
2022/09/05 08:10:32;;;;;;;4.18;2.92;;;;;;;25.68;nan;-24528.56;4935844;28;20186;-58
2022/09/05 08:13:10;;;;;;;4.22;2.88;;;;;;;25.43;nan;-24521.84;5033178;28;20175;-58
2022/09/05 08:15:37;;;;;;;3.92;2.70;;;;;;;25.72;nan;-24529.69;5032997;28;20167;-58
2022/09/05 08:18:08;;;;;;;4.53;3.17;;;;;;;25.07;nan;-24512.19;5032868;28;20171;-58
2022/09/05 08:21:04;;;;;;;5.13;2.97;;;;;;;25.68;nan;-24528.56;5032906;28;20238;-58
2022/09/05 08:23:39;;;;;;;4.32;3.42;;;;;;;25.56;nan;-24525.28;5032310;28;20202;-58
2022/09/05 08:26:15;;;;;;;3.83;3.17;;;;;;;25.29;nan;-24517.97;5031816;28;20183;-57
2022/09/05 08:28:43;;;;;;;4.25;2.90;;;;;;;25.43;nan;-24521.97;5030190;28;20701;-58
2022/09/05 08:31:18;;;;;;;4.15;3.28;;;;;;;25.10;nan;-24512.88;5031680;28;20217;-58
2022/09/05 08:33:47;;;;;;;4.63;3.30;;;;;;;25.21;nan;-24515.91;5031743;28;20232;-59
2022/09/05 08:36:39;;;;;;;6.88;3.58;;;;;;;25.27;nan;-24517.56;5031058;28;20233;-58
2022/09/05 08:39:06;;;;;;;7.13;4.00;;;;;;;25.18;nan;-24515.09;5030681;28;20191;-58
2022/09/05 08:41:56;;;;;;;9.38;4.15;;;;;;;25.58;nan;-24525.97;5032312;28;20685;-57
2022/09/05 08:44:56;;;;;;;7.15;4.40;;;;;;;25.74;nan;-24530.22;5032083;28;20179;-58
2022/09/05 08:47:46;;;;;;;4.53;3.15;;;;;;;25.78;nan;-24531.31;5043457;28;20565;-58
2022/09/05 08:50:27;;;;;;;5.68;3.78;;;;;;;25.61;nan;-24526.78;5032343;28;20649;-58
2022/09/05 08:53:12;;;;;;;5.90;3.28;;;;;;;25.64;nan;-24527.47;5032664;28;20699;-58
2022/09/05 08:56:14;;;;;;;4.88;3.30;;;;;;;26.08;nan;-24539.56;5012380;28;20219;-59
2022/09/05 08:59:00;;;;;;;5.15;3.55;;;;;;;26.44;nan;-24549.19;5038306;28;20174;-59
2022/09/05 09:01:53;;;;;;;6.72;3.42;;;;;;;26.21;nan;-24543.00;5043493;28;20218;-58
2022/09/05 09:04:25;;;;;;;5.00;3.40;;;;;;;25.78;nan;-24531.31;5031458;28;20280;-58
2022/09/05 09:07:43;;;;;;;4.43;3.58;;;;;;;25.62;nan;-24527.06;5032256;28;20176;-58
2022/09/05 09:10:14;;;;;;;6.95;3.70;;;;;;;25.74;nan;-24530.22;5009657;28;20651;-59
2022/09/05 09:13:15;;;;;;;4.75;3.60;;;;;;;25.56;nan;-24525.41;5010535;28;20180;-58
2022/09/05 09:16:03;;;;;;;5.50;3.72;;;;;;;25.89;nan;-24534.34;5038525;28;20200;-59
2022/09/05 09:18:44;;;;;;;5.10;3.47;;;;;;;25.63;nan;-24527.19;5032211;28;20179;-59
2022/09/05 09:21:27;;;;;;;5.60;3.58;;;;;;;25.84;nan;-24533.13;5044934;28;20234;-59
2022/09/05 09:24:06;;;;;;;5.00;3.58;;;;;;;25.98;nan;-24536.69;5031509;28;20670;-57
2022/09/05 09:26:50;;;;;;;4.63;3.28;;;;;;;25.66;nan;-24528.16;5031652;28;20604;-59
2022/09/05 09:29:17;;;;;;;4.60;3.25;;;;;;;26.04;nan;-24538.47;5037867;28;20187;-58
2022/09/05 09:31:55;;;;;;;5.55;3.72;;;;;;;26.00;nan;-24537.38;5035957;28;20195;-59
2022/09/05 09:34:24;;;;;;;4.72;3.25;;;;;;;25.91;nan;-24535.03;5031716;28;20257;-58
2022/09/05 09:36:49;;;;;;;5.28;3.65;;;;;;;25.94;nan;-24535.72;5031624;28;20194;-57
2022/09/05 09:39:25;;;;;;;6.20;3.83;;;;;;;26.11;nan;-24540.25;5042342;28;20633;-58
2022/09/05 09:42:17;;;;;;;5.45;3.47;;;;;;;26.67;nan;-24555.66;5034367;28;20815;-58
2022/09/05 09:44:54;;;;;;;5.20;3.58;;;;;;;27.27;nan;-24571.84;5036046;28;20186;-58
2022/09/05 09:47:34;;;;;;;5.32;3.50;;;;;;;27.73;nan;-24584.16;5031259;28;20270;-58
2022/09/05 09:50:24;;;;;;;6.72;3.70;;;;;;;27.88;nan;-24588.41;5031783;28;20198;-58
2022/09/05 09:53:13;;;;;;;6.53;3.50;;;;;;;27.99;nan;-24591.44;5031831;28;20163;-59
2022/09/05 09:55:53;;;;;;;4.80;3.30;;;;;;;27.77;nan;-24585.25;5031344;28;20254;-58
2022/09/05 09:58:47;;;;;;;6.00;3.58;;;;;;;27.19;nan;-24569.63;5031747;28;20197;-58
2022/09/05 10:01:22;;;;;;;4.68;3.30;;;;;;;27.27;nan;-24571.69;5031509;28;20619;-58
2022/09/05 10:04:06;;;;;;;4.45;3.50;;;;;;;27.77;nan;-24585.25;5031470;28;20166;-58
2022/09/05 10:06:49;;;;;;;4.85;3.47;;;;;;;27.89;nan;-24588.69;5031828;28;20222;-58
2022/09/05 10:09:27;;;;;;;4.57;3.45;;;;;;;27.54;nan;-24579.09;5033554;28;20179;-58
2022/09/05 10:12:24;;;;;;;4.40;3.45;;;;;;;26.98;nan;-24564.00;5039826;28;20236;-58
2022/09/05 10:15:00;;;;;;;4.72;3.70;;;;;;;26.27;nan;-24544.66;5032756;28;20203;-57
2022/09/05 10:17:28;;;;;;;5.20;3.45;;;;;;;25.99;nan;-24536.97;5045566;28;20189;-58
2022/09/05 10:20:22;;;;;;;5.18;3.70;;;;;;;26.00;nan;-24537.38;5037916;28;20231;-58
2022/09/05 10:23:02;;;;;;;3.97;3.22;;;;;;;26.07;nan;-24539.16;5015016;28;20699;-58
2022/09/05 10:26:13;;;;;;;5.57;3.70;;;;;;;26.31;nan;-24545.91;5025939;28;20565;-58
2022/09/05 10:28:53;;;;;;;5.15;3.17;;;;;;;26.48;nan;-24550.28;5039566;28;20638;-57
2022/09/05 10:31:28;;;;;;;3.58;3.10;;;;;;;26.42;nan;-24548.63;5034826;28;20183;-61
2022/09/05 10:34:19;;;;;;;6.03;3.40;;;;;;;26.86;nan;-24560.59;5034755;28;20201;-58
2022/09/05 10:37:01;;;;;;;6.00;3.33;;;;;;;26.67;nan;-24555.66;5015083;28;20659;-58
2022/09/05 10:39:29;;;;;;;4.45;3.25;;;;;;;27.26;nan;-24571.56;5014577;28;20574;-58
2022/09/05 10:42:00;;;;;;;5.95;3.65;;;;;;;27.63;nan;-24581.56;5015397;28;20802;-58
2022/09/05 10:44:39;;;;;;;4.72;3.17;;;;;;;27.53;nan;-24578.97;5014932;28;20234;-58
2022/09/05 10:47:31;;;;;;;5.45;3.47;;;;;;;28.00;nan;-24591.69;5014785;28;20194;-58
2022/09/05 10:50:29;;;;;;;4.63;3.55;;;;;;;28.15;nan;-24595.53;5014388;28;20560;-58
2022/09/05 10:53:28;;;;;;;5.85;3.65;;;;;;;28.24;nan;-24598.13;5013939;28;20230;-57
2022/09/05 10:56:15;;;;;;;4.75;3.13;;;;;;;27.94;nan;-24590.06;5043524;28;20763;-58
2022/09/05 10:58:46;;;;;;;3.75;2.65;;;;;;;28.26;nan;-24598.53;5034768;28;20182;-58
2022/09/05 11:01:15;;;;;;;2.88;2.50;;;;;;;28.30;nan;-24599.66;5034561;28;20278;-58
2022/09/05 11:03:48;;;;;;;3.55;2.88;;;;;;;28.25;nan;-24598.28;5034420;28;20187;-59
2022/09/05 11:06:19;;;;;;;3.80;2.75;;;;;;;28.47;nan;-24604.28;5034439;28;20155;-57
2022/09/05 11:09:00;;;;;;;3.85;2.65;;;;;;;28.36;nan;-24601.41;5042556;28;20174;-57
2022/09/05 11:11:26;;;;;;;3.28;2.75;;;;;;;28.44;nan;-24603.47;5027523;28;20568;-57
2022/09/05 11:14:18;;;;;;;3.90;3.10;;;;;;;28.32;nan;-24600.19;5033853;28;20184;-59
2022/09/05 11:16:55;;;;;;;4.95;3.03;;;;;;;27.84;nan;-24587.31;5033773;28;20560;-58
2022/09/05 11:19:38;;;;;;;3.75;2.80;;;;;;;27.98;nan;-24591.16;5034118;28;20304;-59
2022/09/05 11:22:06;;;;;;;3.47;2.63;;;;;;;27.89;nan;-24588.56;5034054;28;20195;-58
2022/09/05 11:24:35;;;;;;;3.83;2.92;;;;;;;28.01;nan;-24591.97;5034212;28;20175;-58
2022/09/05 11:27:51;;;;;;;3.97;2.88;;;;;;;28.06;nan;-24593.34;5033362;28;20175;-58
2022/09/05 11:30:22;;;;;;;3.50;2.67;;;;;;;28.37;nan;-24601.56;5034147;28;20167;-57
2022/09/05 11:32:47;;;;;;;4.55;2.80;;;;;;;28.53;nan;-24605.94;5033949;28;20225;-58
2022/09/05 11:35:23;;;;;;;3.28;2.75;;;;;;;27.83;nan;-24586.91;5033811;28;20592;-58
2022/09/05 11:37:58;;;;;;;4.53;3.25;;;;;;;28.34;nan;-24600.88;5031444;28;20186;-58
2022/09/05 11:40:49;;;;;;;3.65;2.65;;;;;;;28.72;nan;-24611.00;5033492;28;20171;-58
2022/09/05 11:43:58;;;;;;;4.03;2.83;;;;;;;28.60;nan;-24607.72;5032983;28;20167;-57
2022/09/05 11:46:50;;;;;;;3.83;2.88;;;;;;;28.72;nan;-24611.13;5024376;28;20187;-58
2022/09/05 11:49:45;;;;;;;3.75;2.78;;;;;;;28.97;nan;-24617.81;5024454;28;20542;-58
2022/09/05 11:52:24;;;;;;;4.57;2.83;;;;;;;27.74;nan;-24584.59;5033374;28;20526;-57
2022/09/05 11:54:58;;;;;;;3.90;2.70;;;;;;;27.71;nan;-24583.63;5032146;28;20268;-57
2022/09/05 11:57:52;;;;;;;3.92;2.95;;;;;;;27.30;nan;-24572.66;5032686;28;20328;-58
2022/09/05 12:00:32;;;;;;;3.53;2.75;;;;;;;27.54;nan;-24579.25;5035274;28;20680;-58
2022/09/05 12:03:30;;;;;;;3.28;2.70;;;;;;;27.49;nan;-24577.72;5048706;28;20213;-58
2022/09/05 12:06:43;;;;;;;3.80;2.85;;;;;;;28.09;nan;-24594.16;5034021;28;20222;-58
2022/09/05 12:09:23;;;;;;;3.72;2.47;;;;;;;28.35;nan;-24601.00;5033116;28;20179;-58
2022/09/05 12:12:11;;;;;;;3.40;2.72;;;;;;;28.53;nan;-24606.06;5033231;28;20187;-58
2022/09/05 12:14:40;;;;;;;3.22;2.65;;;;;;;28.50;nan;-24605.25;5033104;28;20168;-59
2022/09/05 12:17:32;;;;;;;3.45;2.95;;;;;;;28.50;nan;-24605.25;5032820;28;20561;-58
2022/09/05 12:20:21;;;;;;;3.45;2.78;;;;;;;28.23;nan;-24597.72;5033262;28;20724;-58
2022/09/05 12:22:49;;;;;;;4.38;2.85;;;;;;;28.07;nan;-24593.63;5032923;28;20584;-58
2022/09/05 12:25:49;;;;;;;3.38;2.65;;;;;;;27.95;nan;-24590.19;5032688;28;20179;-58
2022/09/05 12:28:30;;;;;;;3.78;2.60;;;;;;;28.01;nan;-24591.84;5033462;28;20190;-58
2022/09/05 12:31:12;;;;;;;3.70;2.80;;;;;;;28.33;nan;-24600.59;5033147;28;20250;-59
2022/09/05 12:33:42;;;;;;;3.97;2.88;;;;;;;28.40;nan;-24602.50;5032750;28;20178;-58
2022/09/05 12:36:14;;;;;;;3.85;2.50;;;;;;;28.52;nan;-24605.66;5032562;28;20175;-58
2022/09/05 12:38:43;;;;;;;4.38;2.92;;;;;;;28.77;nan;-24612.38;5032161;28;20167;-58
2022/09/05 12:41:24;;;;;;;4.03;2.67;;;;;;;28.85;nan;-24614.56;5032934;28;20258;-58
2022/09/05 12:44:01;;;;;;;4.10;2.58;;;;;;;29.16;nan;-24623.03;5032406;28;20179;-58
2022/09/05 12:46:44;;;;;;;4.18;2.40;;;;;;;29.04;nan;-24619.59;5031902;28;20183;-59
2022/09/05 12:49:39;;;;;;;4.47;2.67;;;;;;;29.70;nan;-24637.50;5032600;28;20229;-58
2022/09/05 12:52:15;;;;;;;2.85;2.58;;;;;;;29.69;nan;-24637.34;5032514;28;20175;-58